Terminal Aerodrome Forecast
Issued by NWS

Home | Current Version | Previous Version | Graphics & Text | Print | Product List | Glossary On
Versions: 1 2 3 4 5 6 7 8 9 10 11 12 13 14 15 16 17 18 19
000
FTUS43 KMPX 240520
TAFAXN
TAF
KAXN 240520Z 2406/2506 VRB03KT P6SM SCT050 SCT120
     FM241800 19006KT P6SM SCT150
     FM250200 13005KT P6SM SCT250=

USA.gov is the U.S. government's official web portal to all federal, state and local government web resources and services.